createdAt,value
2022-08-23T00:00:30.739Z,14.35
2022-08-23T00:02:47.496Z,14.35
2022-08-23T00:03:52.529Z,14.30
2022-08-23T00:06:23.204Z,14.29
2022-08-23T00:09:48.135Z,14.33
2022-08-23T00:10:55.110Z,14.32
2022-08-23T00:11:55.101Z,14.32
2022-08-23T00:12:55.197Z,14.30
2022-08-23T00:13:55.087Z,14.30
2022-08-23T00:14:55.058Z,14.29
2022-08-23T00:17:09.957Z,14.35
2022-08-23T00:19:31.901Z,14.33
2022-08-23T00:22:25.257Z,14.32
2022-08-23T00:24:47.208Z,14.33
2022-08-23T00:27:24.835Z,14.26
2022-08-23T00:28:24.816Z,14.25
2022-08-23T00:29:31.824Z,14.23
2022-08-23T00:32:02.527Z,14.18
2022-08-23T00:33:09.476Z,14.11
2022-08-23T00:34:02.442Z,14.10
2022-08-23T00:35:09.454Z,14.07
2022-08-23T00:38:34.227Z,14.03
2022-08-23T00:40:38.498Z,13.99
2022-08-23T00:43:16.135Z,13.89
2022-08-23T00:44:16.113Z,13.86
2022-08-23T00:46:53.782Z,13.83
2022-08-23T00:48:00.951Z,13.81
2022-08-23T00:50:19.238Z,13.85
2022-08-23T00:51:22.703Z,13.85
2022-08-23T00:52:15.630Z,13.89
2022-08-23T00:53:15.624Z,13.87
2022-08-23T00:55:37.541Z,13.79
2022-08-23T00:56:44.526Z,13.74
2022-08-23T00:58:59.417Z,13.74
2022-08-23T00:59:59.426Z,13.72
2022-08-23T01:00:59.402Z,13.75
2022-08-23T01:01:59.467Z,13.75
2022-08-23T01:02:59.391Z,13.75
2022-08-23T01:04:04.791Z,13.77
2022-08-23T01:04:59.400Z,13.78
2022-08-23T01:05:59.363Z,13.78
2022-08-23T01:06:59.342Z,13.77
2022-08-23T01:07:59.505Z,13.74
2022-08-23T01:08:59.323Z,13.70
2022-08-23T01:09:59.301Z,13.68
2022-08-23T01:10:59.301Z,13.68
2022-08-23T01:12:02.282Z,13.70
2022-08-23T01:12:59.295Z,13.70
2022-08-23T01:13:59.382Z,13.68
2022-08-23T01:14:59.254Z,13.71
2022-08-23T01:15:59.269Z,13.71
2022-08-23T01:16:59.253Z,13.72
2022-08-23T01:17:59.375Z,13.74
2022-08-23T01:18:59.252Z,13.74
2022-08-23T01:19:59.228Z,13.74
2022-08-23T01:20:59.195Z,13.71
2022-08-23T01:21:59.196Z,13.74
2022-08-23T01:22:59.192Z,13.68
2022-08-23T01:23:59.164Z,13.68
2022-08-23T01:25:07.535Z,13.63
2022-08-23T01:25:59.140Z,13.62
2022-08-23T01:27:02.128Z,13.60
2022-08-23T01:27:59.254Z,13.60
2022-08-23T01:28:59.107Z,13.59
2022-08-23T01:29:59.097Z,13.59
2022-08-23T01:30:59.118Z,13.60
2022-08-23T01:31:59.079Z,13.60
2022-08-23T01:32:59.179Z,13.62
2022-08-23T01:33:59.173Z,13.63
2022-08-23T01:34:59.047Z,13.63
2022-08-23T01:35:59.050Z,13.63
2022-08-23T01:36:59.076Z,13.60
2022-08-23T01:37:59.227Z,13.56
2022-08-23T01:38:59.020Z,13.53
2022-08-23T01:39:59.077Z,13.53
2022-08-23T01:40:58.969Z,13.52
2022-08-23T01:42:01.977Z,13.50
2022-08-23T01:42:59.179Z,13.52
2022-08-23T01:43:58.940Z,13.50
2022-08-23T01:44:58.931Z,13.50
2022-08-23T01:45:58.943Z,13.52
2022-08-23T01:46:58.920Z,13.54
2022-08-23T01:47:59.198Z,13.54
2022-08-23T01:48:58.895Z,13.53
2022-08-23T01:49:58.883Z,13.53
2022-08-23T01:50:58.886Z,13.52
2022-08-23T01:51:58.876Z,13.50
2022-08-23T01:52:59.055Z,13.50
2022-08-23T01:53:58.889Z,13.49
2022-08-23T01:54:58.837Z,13.49
2022-08-23T01:55:58.830Z,13.49
2022-08-23T01:57:01.815Z,13.50
2022-08-23T01:57:58.816Z,13.52
2022-08-23T01:58:58.797Z,13.47
2022-08-23T01:59:58.785Z,13.46
2022-08-23T02:00:58.777Z,13.44
2022-08-23T02:01:58.828Z,13.42
2022-08-23T02:02:58.906Z,13.42
2022-08-23T02:04:05.341Z,13.42
2022-08-23T02:04:58.737Z,13.46
2022-08-23T02:05:58.732Z,13.44
2022-08-23T02:06:58.717Z,13.44
2022-08-23T02:07:58.814Z,13.44
2022-08-23T02:08:58.701Z,13.44
2022-08-23T02:09:58.685Z,13.44
2022-08-23T02:10:58.679Z,13.44
2022-08-23T02:12:01.661Z,13.42
2022-08-23T02:12:58.771Z,13.42
2022-08-23T02:13:58.639Z,13.42
2022-08-23T02:14:58.645Z,13.42
2022-08-23T02:15:58.661Z,13.39
2022-08-23T02:17:03.211Z,13.41
2022-08-23T02:17:58.677Z,13.42
2022-08-23T02:18:58.593Z,13.41
2022-08-23T02:19:58.575Z,13.42
2022-08-23T02:20:58.632Z,13.41
2022-08-23T02:21:58.551Z,13.42
2022-08-23T02:22:58.550Z,13.41
2022-08-23T02:23:58.560Z,13.41
2022-08-23T02:24:58.535Z,13.39
2022-08-23T02:25:58.585Z,13.37
2022-08-23T02:27:02.015Z,13.33
2022-08-23T02:27:58.514Z,13.27
2022-08-23T02:28:58.493Z,13.25
2022-08-23T02:29:58.481Z,13.25
2022-08-23T02:30:58.465Z,13.20
2022-08-23T02:31:58.464Z,13.22
2022-08-23T02:32:58.485Z,13.22
2022-08-23T02:33:58.436Z,13.22
2022-08-23T02:35:04.901Z,13.22
2022-08-23T02:35:58.414Z,13.20
2022-08-23T02:36:58.498Z,13.19
2022-08-23T02:37:58.387Z,13.18
2022-08-23T02:38:58.387Z,13.12
2022-08-23T02:39:58.402Z,13.09
2022-08-23T02:41:00.970Z,13.09
2022-08-23T02:42:01.664Z,13.11
2022-08-23T02:42:58.367Z,13.08
2022-08-23T02:43:58.327Z,13.11
2022-08-23T02:44:58.319Z,13.11
2022-08-23T02:45:58.306Z,13.11
2022-08-23T02:46:58.326Z,13.11
2022-08-23T02:47:58.292Z,13.12
2022-08-23T02:48:58.268Z,13.11
2022-08-23T02:49:58.259Z,13.08
2022-08-23T02:50:58.259Z,13.05
2022-08-23T02:51:58.248Z,13.08
2022-08-23T02:52:58.252Z,13.04
2022-08-23T02:53:58.225Z,13.03
2022-08-23T02:54:58.489Z,13.03
2022-08-23T02:55:58.234Z,13.03
2022-08-23T02:57:01.199Z,13.03
2022-08-23T02:57:58.242Z,13.04
2022-08-23T02:58:58.181Z,13.03
2022-08-23T02:59:58.164Z,13.05
2022-08-23T03:00:58.167Z,13.04
2022-08-23T03:01:58.185Z,13.04
2022-08-23T03:02:58.245Z,13.04
2022-08-23T03:03:58.114Z,13.04
2022-08-23T03:04:58.102Z,13.04
2022-08-23T03:05:58.398Z,13.01
2022-08-23T03:06:59.087Z,13.00
2022-08-23T03:07:58.133Z,12.95
2022-08-23T03:08:58.076Z,12.95
2022-08-23T03:09:58.054Z,12.90
2022-08-23T03:10:58.046Z,12.87
2022-08-23T03:12:01.077Z,12.86
2022-08-23T03:12:58.043Z,12.86
2022-08-23T03:13:58.017Z,12.86
2022-08-23T03:14:58.004Z,12.87
2022-08-23T03:15:58.007Z,12.87
2022-08-23T03:16:58.399Z,12.87
2022-08-23T03:17:58.022Z,12.87
2022-08-23T03:18:57.968Z,12.87
2022-08-23T03:19:57.948Z,12.85
2022-08-23T03:20:57.948Z,12.83
2022-08-23T03:21:57.941Z,12.82
2022-08-23T03:22:58.018Z,12.79
2022-08-23T03:23:57.918Z,12.75
2022-08-23T03:24:57.899Z,12.68
2022-08-23T03:25:57.898Z,12.67
2022-08-23T03:27:00.890Z,12.64
2022-08-23T03:27:57.931Z,12.61
2022-08-23T03:28:57.855Z,12.60
2022-08-23T03:29:57.879Z,12.57
2022-08-23T03:30:57.834Z,12.57
2022-08-23T03:31:57.833Z,12.57
2022-08-23T03:32:57.822Z,12.57
2022-08-23T03:33:57.802Z,12.58
2022-08-23T03:34:57.794Z,12.57
2022-08-23T03:35:57.803Z,12.54
2022-08-23T03:36:57.770Z,12.53
2022-08-23T03:37:57.854Z,12.53
2022-08-23T03:38:57.754Z,12.50
2022-08-23T03:39:57.787Z,12.49
2022-08-23T03:40:57.726Z,12.49
2022-08-23T03:42:00.716Z,12.49
2022-08-23T03:42:57.725Z,12.50
2022-08-23T03:43:57.694Z,12.53
2022-08-23T03:45:02.503Z,12.50
2022-08-23T03:45:57.675Z,12.50
2022-08-23T03:46:57.664Z,12.53
2022-08-23T03:47:57.707Z,12.54
2022-08-23T03:48:57.642Z,12.53
2022-08-23T03:49:57.645Z,12.53
2022-08-23T03:50:57.626Z,12.50
2022-08-23T03:51:57.606Z,12.50
2022-08-23T03:52:57.659Z,12.47
2022-08-23T03:53:57.603Z,12.50
2022-08-23T03:54:57.581Z,12.50
2022-08-23T03:55:57.568Z,12.49
2022-08-23T03:57:00.599Z,12.53
2022-08-23T03:57:57.619Z,12.53
2022-08-23T03:58:57.538Z,12.53
2022-08-23T03:59:57.508Z,12.53
2022-08-23T04:00:57.471Z,12.53
2022-08-23T04:01:57.528Z,12.49
2022-08-23T04:02:57.493Z,12.49
2022-08-23T04:03:57.446Z,12.46
2022-08-23T04:04:57.443Z,12.45
2022-08-23T04:05:57.412Z,12.45
2022-08-23T04:06:57.398Z,12.46
2022-08-23T04:07:57.432Z,12.46
2022-08-23T04:08:57.372Z,12.47
2022-08-23T04:09:57.420Z,12.47
2022-08-23T04:10:57.355Z,12.50
2022-08-23T04:12:00.345Z,12.46
2022-08-23T04:12:58.392Z,12.49
2022-08-23T04:13:57.318Z,12.47
2022-08-23T04:14:57.312Z,12.47
2022-08-23T04:15:57.303Z,12.47
2022-08-23T04:16:57.293Z,12.46
2022-08-23T04:17:57.361Z,12.46
2022-08-23T04:18:57.285Z,12.45
2022-08-23T04:19:57.258Z,12.40
2022-08-23T04:20:57.274Z,12.39
2022-08-23T04:21:57.283Z,12.37
2022-08-23T04:22:57.233Z,12.35
2022-08-23T04:23:57.215Z,12.32
2022-08-23T04:24:57.236Z,12.31
2022-08-23T04:25:57.196Z,12.28
2022-08-23T04:27:00.236Z,12.25
2022-08-23T04:27:57.201Z,12.24
2022-08-23T04:28:57.166Z,12.22
2022-08-23T04:29:57.170Z,12.24
2022-08-23T04:30:57.146Z,12.27
2022-08-23T04:31:57.156Z,12.28
2022-08-23T04:32:57.157Z,12.29
2022-08-23T04:33:57.118Z,12.31
2022-08-23T04:34:57.098Z,12.35
2022-08-23T04:35:57.109Z,12.32
2022-08-23T04:36:57.110Z,12.32
2022-08-23T04:37:57.154Z,12.36
2022-08-23T04:38:57.068Z,12.36
2022-08-23T04:39:57.134Z,12.35
2022-08-23T04:40:57.061Z,12.32
2022-08-23T04:42:00.022Z,12.32
2022-08-23T04:42:57.034Z,12.35
2022-08-23T04:43:57.010Z,12.35
2022-08-23T04:44:57.004Z,12.35
2022-08-23T04:45:57.022Z,12.36
2022-08-23T04:46:56.982Z,12.37
2022-08-23T04:47:57.030Z,12.37
2022-08-23T04:48:56.975Z,12.36
2022-08-23T04:49:57.054Z,12.36
2022-08-23T04:50:56.931Z,12.36
2022-08-23T04:51:56.922Z,12.35
2022-08-23T04:52:56.914Z,12.32
2022-08-23T04:53:56.955Z,12.31
2022-08-23T04:54:56.884Z,12.28
2022-08-23T04:55:56.895Z,12.28
2022-08-23T04:56:59.876Z,12.28
2022-08-23T04:57:57.040Z,12.29
2022-08-23T04:58:56.898Z,12.29
2022-08-23T04:59:56.855Z,12.31
2022-08-23T05:00:56.904Z,12.31
2022-08-23T05:01:56.854Z,12.31
2022-08-23T05:02:56.836Z,12.31
2022-08-23T05:03:56.858Z,12.27
2022-08-23T05:04:56.787Z,12.28
2022-08-23T05:05:56.783Z,12.28
2022-08-23T05:06:56.778Z,12.27
2022-08-23T05:07:56.821Z,12.28
2022-08-23T05:08:56.751Z,12.27
2022-08-23T05:09:56.752Z,12.28
2022-08-23T05:10:56.729Z,12.28
2022-08-23T05:11:59.719Z,12.29
2022-08-23T05:12:56.728Z,12.31
2022-08-23T05:13:56.708Z,12.31
2022-08-23T05:14:56.679Z,12.31
2022-08-23T05:15:56.711Z,12.29
2022-08-23T05:16:56.670Z,12.29
2022-08-23T05:17:56.664Z,12.31
2022-08-23T05:18:56.650Z,12.32
2022-08-23T05:19:56.633Z,12.32
2022-08-23T05:20:56.627Z,12.35
2022-08-23T05:21:57.297Z,12.37
2022-08-23T05:22:56.632Z,12.43
2022-08-23T05:23:56.604Z,12.45
2022-08-23T05:24:56.582Z,12.47
2022-08-23T05:25:56.573Z,12.47
2022-08-23T05:26:59.598Z,12.49
2022-08-23T05:27:56.598Z,12.49
2022-08-23T05:28:56.543Z,12.47
2022-08-23T05:29:56.537Z,12.47
2022-08-23T05:30:57.231Z,12.47
2022-08-23T05:31:56.511Z,12.49
2022-08-23T05:32:56.493Z,12.49
2022-08-23T05:33:56.485Z,12.50
2022-08-23T05:34:56.476Z,12.50
2022-08-23T05:35:56.459Z,12.54
2022-08-23T05:36:56.618Z,12.54
2022-08-23T05:37:56.480Z,12.55
2022-08-23T05:38:56.478Z,12.57
2022-08-23T05:39:56.460Z,12.58
2022-08-23T05:40:56.418Z,12.60
2022-08-23T05:41:59.398Z,12.61
2022-08-23T05:42:56.408Z,12.62
2022-08-23T05:43:56.390Z,12.67
2022-08-23T05:44:56.369Z,12.67
2022-08-23T05:45:56.355Z,12.68
2022-08-23T05:46:56.347Z,12.72
2022-08-23T05:47:56.327Z,12.73
2022-08-23T05:48:56.427Z,12.73
2022-08-23T05:49:56.327Z,12.76
2022-08-23T05:50:56.320Z,12.79
2022-08-23T05:51:56.299Z,12.82
2022-08-23T05:52:56.287Z,12.86
2022-08-23T05:53:56.279Z,12.86
2022-08-23T05:54:56.261Z,12.87
2022-08-23T05:55:56.287Z,12.93
2022-08-23T05:56:59.300Z,12.95
2022-08-23T05:57:56.251Z,12.97
2022-08-23T05:58:59.632Z,13.01
2022-08-23T05:59:56.212Z,13.03
2022-08-23T06:00:56.222Z,13.04
2022-08-23T06:01:56.193Z,13.08
2022-08-23T06:02:56.181Z,13.11
2022-08-23T06:03:56.191Z,13.12
2022-08-23T06:04:57.592Z,13.16
2022-08-23T06:05:56.143Z,13.18
2022-08-23T06:06:56.142Z,13.20
2022-08-23T06:07:56.174Z,13.23
2022-08-23T06:08:56.134Z,13.27
2022-08-23T06:09:56.105Z,13.31
2022-08-23T06:10:56.084Z,13.33
2022-08-23T06:11:59.103Z,13.39
2022-08-23T06:12:56.091Z,13.42
2022-08-23T06:13:56.099Z,13.47
2022-08-23T06:14:56.057Z,13.49
2022-08-23T06:15:56.044Z,13.53
2022-08-23T06:16:57.046Z,13.59
2022-08-23T06:17:56.072Z,13.62
2022-08-23T06:18:56.006Z,13.65
2022-08-23T06:19:55.989Z,13.70
2022-08-23T06:20:55.987Z,13.74
2022-08-23T06:21:55.997Z,13.77
2022-08-23T06:22:55.965Z,13.81
2022-08-23T06:23:55.956Z,13.83
2022-08-23T06:24:55.937Z,13.87
2022-08-23T06:25:55.936Z,13.93
2022-08-23T06:26:58.947Z,13.97
2022-08-23T06:27:55.987Z,14.03
2022-08-23T06:28:56.003Z,14.05
2022-08-23T06:29:55.887Z,14.07
2022-08-23T06:30:55.970Z,14.12
2022-08-23T06:31:55.910Z,14.15
2022-08-23T06:32:55.915Z,14.22
2022-08-23T06:33:55.936Z,14.25
2022-08-23T06:35:32.865Z,14.29
2022-08-23T06:35:56.818Z,14.32
2022-08-23T06:36:55.805Z,14.36
2022-08-23T06:37:55.836Z,14.41
2022-08-23T06:38:55.792Z,14.45
2022-08-23T06:39:55.797Z,14.50
2022-08-23T06:40:55.773Z,14.54
2022-08-23T06:41:58.760Z,14.60
2022-08-23T06:42:56.792Z,14.65
2022-08-23T06:43:55.733Z,14.68
2022-08-23T06:44:55.733Z,14.72
2022-08-23T06:45:58.479Z,14.78
2022-08-23T06:46:55.753Z,14.84
2022-08-23T06:47:55.749Z,14.88
2022-08-23T06:48:55.681Z,14.94
2022-08-23T06:49:58.117Z,14.97
2022-08-23T06:50:55.670Z,15.03
2022-08-23T06:51:55.646Z,15.09
2022-08-23T06:52:55.644Z,15.18
2022-08-23T06:53:55.643Z,15.25
2022-08-23T06:54:55.628Z,15.31
2022-08-23T06:55:55.614Z,15.35
2022-08-23T06:56:58.606Z,15.43
2022-08-23T06:57:55.654Z,15.49
2022-08-23T06:58:55.608Z,15.54
2022-08-23T06:59:55.566Z,15.61
2022-08-23T07:00:57.585Z,15.83
2022-08-23T07:01:55.619Z,16.28
2022-08-23T07:02:55.734Z,16.71
2022-08-23T07:03:55.583Z,17.02
2022-08-23T07:04:55.519Z,17.30
2022-08-23T07:06:55.498Z,17.71
2022-08-23T07:07:55.488Z,17.89
2022-08-23T07:08:55.479Z,18.05
2022-08-23T07:09:55.461Z,18.23
2022-08-23T07:10:55.443Z,18.38
2022-08-23T07:11:58.470Z,18.53
2022-08-23T07:12:55.569Z,18.68
2022-08-23T07:13:55.420Z,18.81
2022-08-23T07:14:55.413Z,18.98
2022-08-23T07:15:55.445Z,19.12
2022-08-23T07:16:55.414Z,19.27
2022-08-23T07:17:55.379Z,19.44
2022-08-23T07:18:55.380Z,19.63
2022-08-23T07:19:55.366Z,19.84
2022-08-23T07:21:55.355Z,20.18
2022-08-23T07:23:55.357Z,20.37
2022-08-23T07:24:55.304Z,20.51
2022-08-23T07:26:58.276Z,20.84
2022-08-23T07:27:55.343Z,20.96
2022-08-23T07:28:55.285Z,21.07
2022-08-23T07:29:55.285Z,21.25
2022-08-23T07:30:55.295Z,21.37
2022-08-23T07:31:55.311Z,21.46
2022-08-23T07:32:55.336Z,21.52
2022-08-23T07:33:55.221Z,21.64
2022-08-23T07:34:55.196Z,21.77
2022-08-23T07:35:55.186Z,21.92
2022-08-23T07:36:55.185Z,22.04
2022-08-23T07:37:55.287Z,22.00
2022-08-23T07:38:55.165Z,21.85
2022-08-23T07:39:58.424Z,21.95
2022-08-23T07:40:55.764Z,22.08
2022-08-23T07:41:58.129Z,22.25
2022-08-23T07:42:55.247Z,22.44
2022-08-23T07:43:55.119Z,22.63
2022-08-23T07:44:55.103Z,22.70
2022-08-23T07:45:55.087Z,22.62
2022-08-23T07:46:55.117Z,22.76
2022-08-23T07:47:55.069Z,22.88
2022-08-23T07:48:55.266Z,22.83
2022-08-23T07:49:55.041Z,22.87
2022-08-23T07:50:57.870Z,22.93
2022-08-23T07:51:55.033Z,23.05
2022-08-23T07:52:55.014Z,23.12
2022-08-23T07:54:54.996Z,23.39
2022-08-23T07:55:54.986Z,23.51
2022-08-23T07:56:57.982Z,23.54
2022-08-23T07:57:54.976Z,23.71
2022-08-23T07:58:54.986Z,23.84
2022-08-23T07:59:54.947Z,23.98
2022-08-23T08:00:54.977Z,24.10
2022-08-23T08:01:55.024Z,24.23
2022-08-23T08:02:55.061Z,24.33
2022-08-23T08:03:54.906Z,24.36
2022-08-23T08:04:54.902Z,24.32
2022-08-23T08:05:54.887Z,24.36
2022-08-23T08:07:16.996Z,24.20
2022-08-23T08:07:55.910Z,24.30
2022-08-23T08:08:54.859Z,24.36
2022-08-23T08:09:54.850Z,24.47
2022-08-23T08:10:54.841Z,24.53
2022-08-23T08:11:57.981Z,24.65
2022-08-23T08:12:54.830Z,24.80
2022-08-23T08:13:54.800Z,24.85
2022-08-23T08:14:54.839Z,24.80
2022-08-23T08:15:54.833Z,24.88
2022-08-23T08:16:54.759Z,24.95
2022-08-23T08:17:54.761Z,25.07
2022-08-23T08:18:54.764Z,25.22
2022-08-23T08:19:54.743Z,25.38
2022-08-23T08:20:54.726Z,25.54
2022-08-23T08:21:54.734Z,25.59
2022-08-23T08:22:58.292Z,25.65
2022-08-23T08:23:54.695Z,25.70
2022-08-23T08:24:54.695Z,25.81
2022-08-23T08:25:54.675Z,25.95
2022-08-23T08:26:57.666Z,26.18
2022-08-23T08:27:54.677Z,26.23
2022-08-23T08:28:54.676Z,26.36
2022-08-23T08:29:54.638Z,26.43
2022-08-23T08:30:54.652Z,26.31
2022-08-23T08:31:54.699Z,26.31
2022-08-23T08:32:54.596Z,26.02
2022-08-23T08:33:54.642Z,26.03
2022-08-23T08:34:54.583Z,25.99
2022-08-23T08:35:57.780Z,26.03
2022-08-23T08:36:54.561Z,25.96
2022-08-23T08:37:54.538Z,25.85
2022-08-23T08:38:58.721Z,25.69
2022-08-23T08:39:54.566Z,25.69
2022-08-23T08:40:54.520Z,25.70
2022-08-23T08:42:04.343Z,25.55
2022-08-23T08:42:54.510Z,25.44
2022-08-23T08:43:54.531Z,25.51
2022-08-23T08:44:54.476Z,25.53
2022-08-23T08:45:58.827Z,25.63
2022-08-23T08:46:54.455Z,25.72
2022-08-23T08:47:54.455Z,25.72
2022-08-23T08:48:54.435Z,25.72
2022-08-23T08:49:54.473Z,25.75
2022-08-23T08:50:54.415Z,25.69
2022-08-23T08:51:54.404Z,25.62
2022-08-23T08:52:54.394Z,25.44
2022-08-23T08:53:54.376Z,25.33
2022-08-23T08:54:55.783Z,25.26
2022-08-23T08:55:54.356Z,25.26
2022-08-23T08:56:57.352Z,25.35
2022-08-23T08:57:54.357Z,25.50
2022-08-23T08:58:54.341Z,25.78
2022-08-23T08:59:54.317Z,25.99
2022-08-23T09:00:56.577Z,26.21
2022-08-23T09:01:54.367Z,26.44
2022-08-23T09:02:54.339Z,26.63
2022-08-23T09:03:54.275Z,26.81
2022-08-23T09:04:54.265Z,26.96
2022-08-23T09:05:54.262Z,27.15
2022-08-23T09:06:54.251Z,27.32
2022-08-23T09:07:54.231Z,27.27
2022-08-23T09:08:54.222Z,27.29
2022-08-23T09:09:54.222Z,27.35
2022-08-23T09:10:54.201Z,27.20
2022-08-23T09:11:57.203Z,27.07
2022-08-23T09:13:54.174Z,27.05
2022-08-23T09:14:54.177Z,27.11
2022-08-23T09:15:54.181Z,27.22
2022-08-23T09:16:54.141Z,27.36
2022-08-23T09:17:54.135Z,27.47
2022-08-23T09:18:54.123Z,27.44
2022-08-23T09:19:54.129Z,27.45
2022-08-23T09:20:54.105Z,27.58
2022-08-23T09:21:54.097Z,27.68
2022-08-23T09:22:54.080Z,27.77
2022-08-23T09:24:00.146Z,27.82
2022-08-23T09:24:54.083Z,27.96
2022-08-23T09:25:54.045Z,28.05
2022-08-23T09:26:57.029Z,28.01
2022-08-23T09:27:54.047Z,28.07
2022-08-23T09:28:54.008Z,28.08
2022-08-23T09:29:54.024Z,28.14
2022-08-23T09:30:54.065Z,28.22
2022-08-23T09:31:53.983Z,28.25
2022-08-23T09:32:53.974Z,28.19
2022-08-23T09:33:53.962Z,28.25
2022-08-23T09:34:54.059Z,28.26
2022-08-23T09:35:53.940Z,28.32
2022-08-23T09:36:53.934Z,28.33
2022-08-23T09:38:53.913Z,28.42
2022-08-23T09:39:53.984Z,28.32
2022-08-23T09:40:53.884Z,28.33
2022-08-23T09:41:56.878Z,28.35
2022-08-23T09:42:53.887Z,28.10
2022-08-23T09:43:53.863Z,28.11
2022-08-23T09:44:53.853Z,28.25
2022-08-23T09:45:53.851Z,28.22
2022-08-23T09:46:53.825Z,28.26
2022-08-23T09:47:53.821Z,28.25
2022-08-23T09:48:53.805Z,28.17
2022-08-23T09:49:53.838Z,28.17
2022-08-23T09:50:53.882Z,28.19
2022-08-23T09:51:54.213Z,28.19
2022-08-23T09:52:53.819Z,28.07
2022-08-23T09:53:53.761Z,28.17
2022-08-23T09:54:55.917Z,28.29
2022-08-23T09:55:53.731Z,28.37
2022-08-23T09:56:56.752Z,28.32
2022-08-23T09:57:53.737Z,28.32
2022-08-23T09:58:53.729Z,28.35
2022-08-23T09:59:53.693Z,28.32
2022-08-23T10:00:53.697Z,28.19
2022-08-23T10:01:53.728Z,28.01
2022-08-23T10:03:53.653Z,27.92
2022-08-23T10:04:53.695Z,27.83
2022-08-23T10:05:53.636Z,27.95
2022-08-23T10:06:53.765Z,27.90
2022-08-23T10:07:53.617Z,28.02
2022-08-23T10:08:53.607Z,28.11
2022-08-23T10:09:53.593Z,28.20
2022-08-23T10:10:53.587Z,28.29
2022-08-23T10:11:56.607Z,28.37
2022-08-23T10:12:53.590Z,28.25
2022-08-23T10:13:53.566Z,28.08
2022-08-23T10:14:53.560Z,28.01
2022-08-23T10:15:53.734Z,28.01
2022-08-23T10:16:53.530Z,28.01
2022-08-23T10:17:53.531Z,27.96
2022-08-23T10:18:53.510Z,28.08
2022-08-23T10:19:53.501Z,28.30
2022-08-23T10:20:53.481Z,28.38
2022-08-23T10:21:53.473Z,28.51
2022-08-23T10:22:53.531Z,28.64
2022-08-23T10:23:53.452Z,28.42
2022-08-23T10:24:53.462Z,28.37
2022-08-23T10:25:53.422Z,28.44
2022-08-23T10:26:56.423Z,28.42
2022-08-23T10:27:53.429Z,28.63
2022-08-23T10:28:53.405Z,28.75
2022-08-23T10:29:53.418Z,28.82
2022-08-23T10:30:53.420Z,28.79
2022-08-23T10:31:56.805Z,28.62
2022-08-23T10:32:53.365Z,28.60
2022-08-23T10:33:53.349Z,28.57
2022-08-23T10:34:53.357Z,28.59
2022-08-23T10:35:53.338Z,28.66
2022-08-23T10:36:53.319Z,28.62
2022-08-23T10:37:53.315Z,28.72
2022-08-23T10:38:53.314Z,28.84
2022-08-23T10:39:53.369Z,28.79
2022-08-23T10:40:53.320Z,28.76
2022-08-23T10:41:56.270Z,28.76
2022-08-23T10:42:53.280Z,28.85
2022-08-23T10:43:53.243Z,28.86
2022-08-23T10:44:53.242Z,28.84
2022-08-23T10:45:55.982Z,28.84
2022-08-23T10:46:53.316Z,28.82
2022-08-23T10:47:53.204Z,28.78
2022-08-23T10:48:53.203Z,28.72
2022-08-23T10:49:53.186Z,28.79
2022-08-23T10:50:54.656Z,28.93
2022-08-23T10:51:53.177Z,28.97
2022-08-23T10:52:53.182Z,29.02
2022-08-23T10:53:53.134Z,28.98
2022-08-23T10:54:53.140Z,28.79
2022-08-23T10:55:53.126Z,28.69
2022-08-23T10:56:56.107Z,28.62
2022-08-23T10:57:53.127Z,28.63
2022-08-23T10:58:53.128Z,28.54
2022-08-23T10:59:53.074Z,28.45
2022-08-23T11:00:53.070Z,28.27
2022-08-23T11:01:53.143Z,28.15
2022-08-23T11:02:53.129Z,28.19
2022-08-23T11:03:53.060Z,28.20
2022-08-23T11:04:53.117Z,28.38
2022-08-23T11:05:53.020Z,28.48
2022-08-23T11:06:53.017Z,28.56
2022-08-23T11:07:53.003Z,28.74
2022-08-23T11:08:53.030Z,28.84
2022-08-23T11:09:52.980Z,28.97
2022-08-23T11:10:56.400Z,29.02
2022-08-23T11:11:55.962Z,29.10
2022-08-23T11:12:52.965Z,29.19
2022-08-23T11:13:52.944Z,29.04
2022-08-23T11:14:52.931Z,29.02
2022-08-23T11:16:52.904Z,29.05
2022-08-23T11:17:52.906Z,29.14
2022-08-23T11:18:52.891Z,29.01
2022-08-23T11:19:52.984Z,28.79
2022-08-23T11:20:52.898Z,28.66
2022-08-23T11:21:52.857Z,28.81
2022-08-23T11:22:52.850Z,28.94
2022-08-23T11:23:52.828Z,29.08
2022-08-23T11:24:52.834Z,29.12
2022-08-23T11:25:52.840Z,29.24
2022-08-23T11:26:55.840Z,29.29
2022-08-23T11:27:52.810Z,29.29
2022-08-23T11:28:52.783Z,29.27
2022-08-23T11:29:52.776Z,29.31
2022-08-23T11:30:52.843Z,29.26
2022-08-23T11:31:52.753Z,29.31
2022-08-23T11:32:52.746Z,29.22
2022-08-23T11:33:52.747Z,29.16
2022-08-23T11:34:52.724Z,29.19
2022-08-23T11:35:52.715Z,29.23
2022-08-23T11:36:52.702Z,29.26
2022-08-23T11:37:52.734Z,29.22
2022-08-23T11:38:53.698Z,29.19
2022-08-23T11:39:52.724Z,29.14
2022-08-23T11:40:52.668Z,29.23
2022-08-23T11:41:55.657Z,29.29
2022-08-23T11:42:52.667Z,29.42
2022-08-23T11:43:52.637Z,29.49
2022-08-23T11:44:56.361Z,29.56
2022-08-23T11:45:52.658Z,29.59
2022-08-23T11:46:52.607Z,29.49
2022-08-23T11:47:52.600Z,29.45
2022-08-23T11:48:52.579Z,29.50
2022-08-23T11:49:52.580Z,29.66
2022-08-23T11:50:57.760Z,29.73
2022-08-23T11:51:52.569Z,29.51
2022-08-23T11:52:52.591Z,29.27
2022-08-23T11:53:52.539Z,29.13
2022-08-23T11:54:52.512Z,29.10
2022-08-23T11:55:52.522Z,29.02
2022-08-23T11:56:55.502Z,28.94
2022-08-23T11:57:52.514Z,28.79
2022-08-23T11:58:52.493Z,28.86
2022-08-23T11:59:52.474Z,28.86
2022-08-23T12:00:52.472Z,28.93
2022-08-23T12:01:52.470Z,28.98
2022-08-23T12:02:52.520Z,29.01
2022-08-23T12:03:56.469Z,29.05
2022-08-23T12:04:52.439Z,29.02
2022-08-23T12:05:52.426Z,29.07
2022-08-23T12:06:52.961Z,29.10
2022-08-23T12:07:52.405Z,29.10
2022-08-23T12:08:52.389Z,29.13
2022-08-23T12:09:52.372Z,29.13
2022-08-23T12:10:52.379Z,29.05
2022-08-23T12:11:55.363Z,29.04
2022-08-23T12:12:52.369Z,29.08
2022-08-23T12:13:52.356Z,29.19
2022-08-23T12:14:52.448Z,29.35
2022-08-23T12:15:52.348Z,29.38
2022-08-23T12:16:52.316Z,29.45
2022-08-23T12:17:52.318Z,29.36
2022-08-23T12:18:56.163Z,29.26
2022-08-23T12:19:52.289Z,29.36
2022-08-23T12:20:52.281Z,29.36
2022-08-23T12:21:52.275Z,29.39
2022-08-23T12:22:52.273Z,29.39
2022-08-23T12:23:52.384Z,29.50
2022-08-23T12:24:52.806Z,29.57
2022-08-23T12:25:52.230Z,29.60
2022-08-23T12:26:55.228Z,29.61
2022-08-23T12:27:52.228Z,29.69
2022-08-23T12:28:52.237Z,29.71
2022-08-23T12:29:52.196Z,29.78
2022-08-23T12:30:52.208Z,29.72
2022-08-23T12:31:52.171Z,29.71
2022-08-23T12:32:52.158Z,29.71
2022-08-23T12:33:52.179Z,29.72
2022-08-23T12:34:52.140Z,29.72
2022-08-23T12:35:52.141Z,29.79
2022-08-23T12:36:52.127Z,29.81
2022-08-23T12:37:52.115Z,29.82
2022-08-23T12:38:52.114Z,29.75
2022-08-23T12:39:52.187Z,29.66
2022-08-23T12:40:54.482Z,29.68
2022-08-23T12:41:55.071Z,29.68
2022-08-23T12:42:52.084Z,29.69
2022-08-23T12:43:52.055Z,29.65
2022-08-23T12:44:52.043Z,29.57
2022-08-23T12:45:52.070Z,29.65
2022-08-23T12:46:52.018Z,29.66
2022-08-23T12:47:52.012Z,29.75
2022-08-23T12:48:52.009Z,29.66
2022-08-23T12:49:52.016Z,29.75
2022-08-23T12:50:51.978Z,29.81
2022-08-23T12:51:51.973Z,29.84
2022-08-23T12:52:51.964Z,29.86
2022-08-23T12:53:51.950Z,29.90
2022-08-23T12:54:51.956Z,29.87
2022-08-23T12:55:51.947Z,29.72
2022-08-23T12:56:54.925Z,29.78
2022-08-23T12:57:51.920Z,29.59
2022-08-23T12:58:52.046Z,29.56
2022-08-23T12:59:51.890Z,29.61
2022-08-23T13:00:51.932Z,29.68
2022-08-23T13:01:51.940Z,29.71
2022-08-23T13:02:51.944Z,29.75
2022-08-23T13:03:51.861Z,29.82
2022-08-23T13:04:51.843Z,29.84
2022-08-23T13:05:52.792Z,29.79
2022-08-23T13:06:51.812Z,29.84
2022-08-23T13:07:51.837Z,29.82
2022-08-23T13:08:52.488Z,29.87
2022-08-23T13:09:53.592Z,29.93
2022-08-23T13:10:51.782Z,29.84
2022-08-23T13:11:54.766Z,29.81
2022-08-23T13:12:51.784Z,29.84
2022-08-23T13:13:51.747Z,29.84
2022-08-23T13:14:51.757Z,29.84
2022-08-23T13:15:51.792Z,29.79
2022-08-23T13:16:51.716Z,29.76
2022-08-23T13:17:51.712Z,29.65
2022-08-23T13:18:51.714Z,29.56
2022-08-23T13:19:51.693Z,29.57
2022-08-23T13:20:51.680Z,29.57
2022-08-23T13:21:56.328Z,29.57
2022-08-23T13:22:51.665Z,29.59
2022-08-23T13:23:51.688Z,29.60
2022-08-23T13:25:01.309Z,29.66
2022-08-23T13:25:52.642Z,29.54
2022-08-23T13:26:54.622Z,29.50